sensor_id;sensor_type;location;lat;lon;timestamp;P1;durP1;ratioP1;P2;durP2;ratioP2
27618;SDS011;15039;50.830;4.730;2023-06-22T00:01:53;5.70;;;2.75;;
27618;SDS011;15039;50.830;4.730;2023-06-22T00:04:18;4.82;;;2.80;;
27618;SDS011;15039;50.830;4.730;2023-06-22T00:06:44;3.35;;;2.70;;
27618;SDS011;15039;50.830;4.730;2023-06-22T00:09:10;2.30;;;2.10;;
27618;SDS011;15039;50.830;4.730;2023-06-22T00:11:36;4.15;;;2.55;;
27618;SDS011;15039;50.830;4.730;2023-06-22T00:14:02;4.13;;;2.80;;
27618;SDS011;15039;50.830;4.730;2023-06-22T00:16:28;2.70;;;2.33;;
27618;SDS011;15039;50.830;4.730;2023-06-22T00:19:14;2.45;;;2.20;;
27618;SDS011;15039;50.830;4.730;2023-06-22T00:21:40;2.58;;;2.30;;
27618;SDS011;15039;50.830;4.730;2023-06-22T00:24:07;3.15;;;2.47;;
27618;SDS011;15039;50.830;4.730;2023-06-22T00:26:33;5.22;;;2.90;;
27618;SDS011;15039;50.830;4.730;2023-06-22T00:28:59;3.75;;;2.80;;
27618;SDS011;15039;50.830;4.730;2023-06-22T00:31:24;2.67;;;2.47;;
27618;SDS011;15039;50.830;4.730;2023-06-22T00:33:50;3.75;;;2.95;;
27618;SDS011;15039;50.830;4.730;2023-06-22T00:36:16;3.38;;;2.42;;
27618;SDS011;15039;50.830;4.730;2023-06-22T00:38:44;2.63;;;2.42;;
27618;SDS011;15039;50.830;4.730;2023-06-22T00:41:09;4.20;;;2.88;;
27618;SDS011;15039;50.830;4.730;2023-06-22T00:43:35;4.10;;;3.10;;
27618;SDS011;15039;50.830;4.730;2023-06-22T00:46:01;5.10;;;2.88;;
27618;SDS011;15039;50.830;4.730;2023-06-22T00:48:26;7.40;;;2.90;;
27618;SDS011;15039;50.830;4.730;2023-06-22T00:50:52;4.00;;;2.60;;
27618;SDS011;15039;50.830;4.730;2023-06-22T00:53:20;3.43;;;2.70;;
27618;SDS011;15039;50.830;4.730;2023-06-22T00:55:46;5.10;;;2.75;;
27618;SDS011;15039;50.830;4.730;2023-06-22T00:58:12;3.70;;;2.70;;
27618;SDS011;15039;50.830;4.730;2023-06-22T01:00:39;4.32;;;2.67;;
27618;SDS011;15039;50.830;4.730;2023-06-22T01:03:06;5.00;;;3.20;;
27618;SDS011;15039;50.830;4.730;2023-06-22T01:10:53;2.80;;;2.60;;
27618;SDS011;15039;50.830;4.730;2023-06-22T01:13:32;4.45;;;3.13;;
27618;SDS011;15039;50.830;4.730;2023-06-22T01:18:39;4.78;;;2.83;;
27618;SDS011;15039;50.830;4.730;2023-06-22T01:21:07;4.07;;;3.17;;
27618;SDS011;15039;50.830;4.730;2023-06-22T01:23:53;6.25;;;3.13;;
27618;SDS011;15039;50.830;4.730;2023-06-22T01:28:55;4.13;;;3.10;;
27618;SDS011;15039;50.830;4.730;2023-06-22T01:31:26;4.20;;;3.10;;
27618;SDS011;15039;50.830;4.730;2023-06-22T01:33:55;3.58;;;2.92;;
27618;SDS011;15039;50.830;4.730;2023-06-22T01:36:24;2.78;;;2.58;;
27618;SDS011;15039;50.830;4.730;2023-06-22T01:38:51;3.53;;;3.15;;
27618;SDS011;15039;50.830;4.730;2023-06-22T01:41:18;3.40;;;3.10;;
27618;SDS011;15039;50.830;4.730;2023-06-22T01:43:45;3.35;;;2.88;;
27618;SDS011;15039;50.830;4.730;2023-06-22T01:46:13;4.78;;;3.40;;
27618;SDS011;15039;50.830;4.730;2023-06-22T01:48:39;3.50;;;3.03;;
27618;SDS011;15039;50.830;4.730;2023-06-22T01:51:05;4.07;;;3.10;;
27618;SDS011;15039;50.830;4.730;2023-06-22T01:53:31;3.83;;;3.17;;
27618;SDS011;15039;50.830;4.730;2023-06-22T01:55:57;3.63;;;3.08;;
27618;SDS011;15039;50.830;4.730;2023-06-22T01:58:23;3.25;;;2.95;;
27618;SDS011;15039;50.830;4.730;2023-06-22T02:00:58;4.25;;;3.13;;
27618;SDS011;15039;50.830;4.730;2023-06-22T02:03:35;4.22;;;2.63;;
27618;SDS011;15039;50.830;4.730;2023-06-22T02:06:07;3.33;;;3.00;;
27618;SDS011;15039;50.830;4.730;2023-06-22T02:08:41;3.58;;;3.15;;
27618;SDS011;15039;50.830;4.730;2023-06-22T02:11:16;3.45;;;3.13;;
27618;SDS011;15039;50.830;4.730;2023-06-22T02:13:45;5.18;;;3.03;;
27618;SDS011;15039;50.830;4.730;2023-06-22T02:16:11;4.97;;;3.15;;
27618;SDS011;15039;50.830;4.730;2023-06-22T02:18:38;5.55;;;3.13;;
27618;SDS011;15039;50.830;4.730;2023-06-22T02:21:05;4.40;;;2.90;;
27618;SDS011;15039;50.830;4.730;2023-06-22T02:23:31;4.43;;;3.03;;
27618;SDS011;15039;50.830;4.730;2023-06-22T02:26:01;2.83;;;2.53;;
27618;SDS011;15039;50.830;4.730;2023-06-22T02:28:28;3.50;;;2.92;;
27618;SDS011;15039;50.830;4.730;2023-06-22T02:30:53;4.28;;;2.92;;
27618;SDS011;15039;50.830;4.730;2023-06-22T02:33:19;4.88;;;3.13;;
27618;SDS011;15039;50.830;4.730;2023-06-22T02:35:45;3.15;;;2.90;;
27618;SDS011;15039;50.830;4.730;2023-06-22T02:38:14;4.05;;;3.33;;
27618;SDS011;15039;50.830;4.730;2023-06-22T02:40:40;5.10;;;3.33;;
27618;SDS011;15039;50.830;4.730;2023-06-22T02:43:05;4.55;;;3.63;;
27618;SDS011;15039;50.830;4.730;2023-06-22T02:45:31;3.15;;;2.70;;
27618;SDS011;15039;50.830;4.730;2023-06-22T02:47:56;3.33;;;2.78;;
27618;SDS011;15039;50.830;4.730;2023-06-22T02:50:23;3.97;;;3.17;;
27618;SDS011;15039;50.830;4.730;2023-06-22T02:52:48;4.13;;;3.40;;
27618;SDS011;15039;50.830;4.730;2023-06-22T02:55:14;4.93;;;3.15;;
27618;SDS011;15039;50.830;4.730;2023-06-22T02:57:40;6.80;;;3.83;;
27618;SDS011;15039;50.830;4.730;2023-06-22T03:00:09;3.40;;;3.08;;
27618;SDS011;15039;50.830;4.730;2023-06-22T03:02:44;3.80;;;3.35;;
27618;SDS011;15039;50.830;4.730;2023-06-22T03:05:11;3.97;;;3.40;;
27618;SDS011;15039;50.830;4.730;2023-06-22T03:07:41;5.32;;;3.55;;
27618;SDS011;15039;50.830;4.730;2023-06-22T03:10:11;4.70;;;3.30;;
27618;SDS011;15039;50.830;4.730;2023-06-22T03:12:38;3.80;;;3.40;;
27618;SDS011;15039;50.830;4.730;2023-06-22T03:15:05;3.50;;;3.20;;
27618;SDS011;15039;50.830;4.730;2023-06-22T03:17:37;3.95;;;3.30;;
27618;SDS011;15039;50.830;4.730;2023-06-22T03:20:04;4.88;;;3.30;;
27618;SDS011;15039;50.830;4.730;2023-06-22T03:22:36;5.93;;;3.60;;
27618;SDS011;15039;50.830;4.730;2023-06-22T03:25:03;5.18;;;3.08;;
27618;SDS011;15039;50.830;4.730;2023-06-22T03:27:29;5.88;;;3.88;;
27618;SDS011;15039;50.830;4.730;2023-06-22T03:29:56;5.90;;;3.13;;
27618;SDS011;15039;50.830;4.730;2023-06-22T03:32:22;4.88;;;3.60;;
27618;SDS011;15039;50.830;4.730;2023-06-22T03:34:48;3.50;;;3.20;;
27618;SDS011;15039;50.830;4.730;2023-06-22T03:37:14;5.82;;;3.70;;
27618;SDS011;15039;50.830;4.730;2023-06-22T03:39:40;5.65;;;3.78;;
27618;SDS011;15039;50.830;4.730;2023-06-22T03:42:06;4.30;;;3.88;;
27618;SDS011;15039;50.830;4.730;2023-06-22T03:44:32;3.90;;;3.50;;
27618;SDS011;15039;50.830;4.730;2023-06-22T03:46:58;3.88;;;3.50;;
27618;SDS011;15039;50.830;4.730;2023-06-22T03:49:24;3.72;;;3.42;;
27618;SDS011;15039;50.830;4.730;2023-06-22T03:51:49;4.78;;;3.58;;
27618;SDS011;15039;50.830;4.730;2023-06-22T03:54:15;5.95;;;3.95;;
27618;SDS011;15039;50.830;4.730;2023-06-22T03:56:40;7.35;;;4.30;;
27618;SDS011;15039;50.830;4.730;2023-06-22T03:59:06;5.13;;;3.95;;
27618;SDS011;15039;50.830;4.730;2023-06-22T04:01:32;5.53;;;3.95;;
27618;SDS011;15039;50.830;4.730;2023-06-22T04:03:57;5.00;;;4.50;;
27618;SDS011;15039;50.830;4.730;2023-06-22T04:06:23;5.30;;;4.18;;
27618;SDS011;15039;50.830;4.730;2023-06-22T04:08:48;4.65;;;3.90;;
27618;SDS011;15039;50.830;4.730;2023-06-22T04:11:16;5.47;;;4.32;;
27618;SDS011;15039;50.830;4.730;2023-06-22T04:13:42;5.38;;;4.40;;
27618;SDS011;15039;50.830;4.730;2023-06-22T04:16:08;4.65;;;4.25;;
27618;SDS011;15039;50.830;4.730;2023-06-22T04:18:34;5.50;;;4.25;;
27618;SDS011;15039;50.830;4.730;2023-06-22T04:20:59;7.07;;;5.03;;
27618;SDS011;15039;50.830;4.730;2023-06-22T04:23:25;5.20;;;4.70;;
27618;SDS011;15039;50.830;4.730;2023-06-22T04:25:51;6.45;;;4.78;;
27618;SDS011;15039;50.830;4.730;2023-06-22T04:28:16;6.25;;;4.50;;
27618;SDS011;15039;50.830;4.730;2023-06-22T04:30:42;5.72;;;4.30;;
27618;SDS011;15039;50.830;4.730;2023-06-22T04:35:37;6.35;;;5.53;;
27618;SDS011;15039;50.830;4.730;2023-06-22T04:38:06;5.93;;;5.38;;
27618;SDS011;15039;50.830;4.730;2023-06-22T04:40:32;5.72;;;5.20;;
27618;SDS011;15039;50.830;4.730;2023-06-22T04:42:58;6.07;;;4.47;;
27618;SDS011;15039;50.830;4.730;2023-06-22T04:45:27;6.55;;;5.20;;
27618;SDS011;15039;50.830;4.730;2023-06-22T04:47:54;8.38;;;6.13;;
27618;SDS011;15039;50.830;4.730;2023-06-22T04:50:19;10.90;;;5.90;;
27618;SDS011;15039;50.830;4.730;2023-06-22T04:52:47;7.57;;;6.18;;
27618;SDS011;15039;50.830;4.730;2023-06-22T04:55:13;9.18;;;6.32;;
27618;SDS011;15039;50.830;4.730;2023-06-22T04:57:43;6.53;;;5.90;;
27618;SDS011;15039;50.830;4.730;2023-06-22T05:00:13;7.20;;;6.32;;
27618;SDS011;15039;50.830;4.730;2023-06-22T05:02:42;7.47;;;6.18;;
27618;SDS011;15039;50.830;4.730;2023-06-22T05:05:09;7.78;;;6.03;;
27618;SDS011;15039;50.830;4.730;2023-06-22T05:07:38;7.63;;;6.50;;
27618;SDS011;15039;50.830;4.730;2023-06-22T05:10:08;7.45;;;6.68;;
27618;SDS011;15039;50.830;4.730;2023-06-22T05:12:36;7.35;;;6.10;;
27618;SDS011;15039;50.830;4.730;2023-06-22T05:15:02;9.15;;;6.30;;
27618;SDS011;15039;50.830;4.730;2023-06-22T05:17:27;7.70;;;6.47;;
27618;SDS011;15039;50.830;4.730;2023-06-22T05:19:53;9.45;;;5.78;;
27618;SDS011;15039;50.830;4.730;2023-06-22T05:22:20;10.40;;;6.07;;
27618;SDS011;15039;50.830;4.730;2023-06-22T05:24:46;7.72;;;5.80;;
27618;SDS011;15039;50.830;4.730;2023-06-22T05:27:12;6.80;;;6.10;;
27618;SDS011;15039;50.830;4.730;2023-06-22T05:29:38;8.63;;;6.18;;
27618;SDS011;15039;50.830;4.730;2023-06-22T05:32:04;7.38;;;6.22;;
27618;SDS011;15039;50.830;4.730;2023-06-22T05:34:30;7.65;;;6.35;;
27618;SDS011;15039;50.830;4.730;2023-06-22T05:36:55;9.00;;;6.97;;
27618;SDS011;15039;50.830;4.730;2023-06-22T05:39:24;9.07;;;6.73;;
27618;SDS011;15039;50.830;4.730;2023-06-22T05:41:50;7.88;;;7.05;;
27618;SDS011;15039;50.830;4.730;2023-06-22T05:44:16;11.40;;;6.80;;
27618;SDS011;15039;50.830;4.730;2023-06-22T05:46:42;9.07;;;7.47;;
27618;SDS011;15039;50.830;4.730;2023-06-22T05:49:13;9.35;;;7.25;;
27618;SDS011;15039;50.830;4.730;2023-06-22T05:51:39;10.05;;;7.43;;
27618;SDS011;15039;50.830;4.730;2023-06-22T05:54:06;9.02;;;7.97;;
27618;SDS011;15039;50.830;4.730;2023-06-22T05:56:33;10.73;;;7.85;;
27618;SDS011;15039;50.830;4.730;2023-06-22T05:58:59;12.50;;;8.07;;
27618;SDS011;15039;50.830;4.730;2023-06-22T06:01:25;9.27;;;6.70;;
27618;SDS011;15039;50.830;4.730;2023-06-22T06:03:51;12.00;;;6.93;;
27618;SDS011;15039;50.830;4.730;2023-06-22T06:06:17;14.20;;;7.32;;
27618;SDS011;15039;50.830;4.730;2023-06-22T06:08:46;9.77;;;6.85;;
27618;SDS011;15039;50.830;4.730;2023-06-22T06:11:11;9.45;;;6.80;;
27618;SDS011;15039;50.830;4.730;2023-06-22T06:13:37;9.95;;;7.45;;
27618;SDS011;15039;50.830;4.730;2023-06-22T06:16:03;9.13;;;6.68;;
27618;SDS011;15039;50.830;4.730;2023-06-22T06:18:29;9.02;;;7.07;;
27618;SDS011;15039;50.830;4.730;2023-06-22T06:20:54;9.35;;;6.70;;
27618;SDS011;15039;50.830;4.730;2023-06-22T06:23:20;7.85;;;6.72;;
27618;SDS011;15039;50.830;4.730;2023-06-22T06:25:45;9.35;;;6.90;;
27618;SDS011;15039;50.830;4.730;2023-06-22T06:28:11;7.53;;;6.80;;
27618;SDS011;15039;50.830;4.730;2023-06-22T06:30:37;11.13;;;6.75;;
27618;SDS011;15039;50.830;4.730;2023-06-22T06:33:03;11.25;;;7.03;;
27618;SDS011;15039;50.830;4.730;2023-06-22T06:35:33;8.27;;;6.70;;
27618;SDS011;15039;50.830;4.730;2023-06-22T06:37:59;8.35;;;7.28;;
27618;SDS011;15039;50.830;4.730;2023-06-22T06:40:25;8.25;;;6.65;;
27618;SDS011;15039;50.830;4.730;2023-06-22T06:42:50;9.80;;;7.00;;
27618;SDS011;15039;50.830;4.730;2023-06-22T06:45:17;9.63;;;6.65;;
27618;SDS011;15039;50.830;4.730;2023-06-22T06:47:44;9.18;;;7.20;;
27618;SDS011;15039;50.830;4.730;2023-06-22T06:50:11;8.80;;;7.20;;
27618;SDS011;15039;50.830;4.730;2023-06-22T06:52:37;10.60;;;6.93;;
27618;SDS011;15039;50.830;4.730;2023-06-22T06:55:03;10.40;;;7.57;;
27618;SDS011;15039;50.830;4.730;2023-06-22T06:57:33;8.75;;;7.43;;
27618;SDS011;15039;50.830;4.730;2023-06-22T06:59:59;10.48;;;7.65;;
27618;SDS011;15039;50.830;4.730;2023-06-22T07:02:25;9.85;;;7.57;;
27618;SDS011;15039;50.830;4.730;2023-06-22T07:04:54;9.18;;;6.93;;
27618;SDS011;15039;50.830;4.730;2023-06-22T07:07:20;8.48;;;7.57;;
27618;SDS011;15039;50.830;4.730;2023-06-22T07:09:46;9.00;;;7.82;;
27618;SDS011;15039;50.830;4.730;2023-06-22T07:12:11;9.80;;;7.38;;
27618;SDS011;15039;50.830;4.730;2023-06-22T07:14:37;10.05;;;7.38;;
27618;SDS011;15039;50.830;4.730;2023-06-22T07:17:03;12.30;;;8.02;;
27618;SDS011;15039;50.830;4.730;2023-06-22T07:19:28;8.88;;;6.70;;
27618;SDS011;15039;50.830;4.730;2023-06-22T07:21:55;9.45;;;7.10;;
27618;SDS011;15039;50.830;4.730;2023-06-22T07:24:21;10.82;;;6.80;;
27618;SDS011;15039;50.830;4.730;2023-06-22T07:26:47;8.70;;;6.72;;
27618;SDS011;15039;50.830;4.730;2023-06-22T07:29:14;8.43;;;5.95;;
27618;SDS011;15039;50.830;4.730;2023-06-22T07:31:45;6.78;;;5.18;;
27618;SDS011;15039;50.830;4.730;2023-06-22T07:34:11;6.88;;;4.93;;
27618;SDS011;15039;50.830;4.730;2023-06-22T07:36:37;7.13;;;4.53;;
27618;SDS011;15039;50.830;4.730;2023-06-22T07:39:03;8.02;;;4.70;;
27618;SDS011;15039;50.830;4.730;2023-06-22T07:41:29;5.95;;;4.28;;
27618;SDS011;15039;50.830;4.730;2023-06-22T07:43:55;6.18;;;4.70;;
27618;SDS011;15039;50.830;4.730;2023-06-22T07:46:20;4.70;;;4.20;;
27618;SDS011;15039;50.830;4.730;2023-06-22T07:48:46;5.10;;;4.35;;
27618;SDS011;15039;50.830;4.730;2023-06-22T07:51:12;5.22;;;4.22;;
27618;SDS011;15039;50.830;4.730;2023-06-22T07:53:38;4.38;;;3.97;;
27618;SDS011;15039;50.830;4.730;2023-06-22T07:56:07;6.70;;;3.95;;
27618;SDS011;15039;50.830;4.730;2023-06-22T07:58:35;5.30;;;3.60;;
27618;SDS011;15039;50.830;4.730;2023-06-22T08:01:01;6.13;;;4.00;;
27618;SDS011;15039;50.830;4.730;2023-06-22T08:03:27;5.28;;;3.92;;
27618;SDS011;15039;50.830;4.730;2023-06-22T08:05:53;4.90;;;4.03;;
27618;SDS011;15039;50.830;4.730;2023-06-22T08:08:19;4.70;;;3.85;;
27618;SDS011;15039;50.830;4.730;2023-06-22T08:10:44;5.20;;;3.97;;
27618;SDS011;15039;50.830;4.730;2023-06-22T08:13:10;4.40;;;3.92;;
27618;SDS011;15039;50.830;4.730;2023-06-22T08:15:36;5.45;;;4.15;;
27618;SDS011;15039;50.830;4.730;2023-06-22T08:18:01;7.03;;;3.90;;
27618;SDS011;15039;50.830;4.730;2023-06-22T08:20:27;5.57;;;3.90;;
27618;SDS011;15039;50.830;4.730;2023-06-22T08:22:53;3.78;;;3.40;;
27618;SDS011;15039;50.830;4.730;2023-06-22T08:25:20;4.03;;;3.35;;
27618;SDS011;15039;50.830;4.730;2023-06-22T08:27:46;4.82;;;4.15;;
27618;SDS011;15039;50.830;4.730;2023-06-22T08:30:15;3.83;;;3.38;;
27618;SDS011;15039;50.830;4.730;2023-06-22T08:32:43;4.05;;;3.75;;
27618;SDS011;15039;50.830;4.730;2023-06-22T08:35:09;5.05;;;4.00;;
27618;SDS011;15039;50.830;4.730;2023-06-22T08:37:34;4.68;;;3.80;;
27618;SDS011;15039;50.830;4.730;2023-06-22T08:40:01;9.30;;;4.15;;
27618;SDS011;15039;50.830;4.730;2023-06-22T08:42:33;6.47;;;4.35;;
27618;SDS011;15039;50.830;4.730;2023-06-22T08:44:59;6.22;;;4.07;;
27618;SDS011;15039;50.830;4.730;2023-06-22T08:47:25;8.23;;;4.00;;
27618;SDS011;15039;50.830;4.730;2023-06-22T08:49:52;5.75;;;3.67;;
27618;SDS011;15039;50.830;4.730;2023-06-22T08:52:19;5.15;;;3.67;;
27618;SDS011;15039;50.830;4.730;2023-06-22T08:54:46;4.25;;;3.83;;
27618;SDS011;15039;50.830;4.730;2023-06-22T08:57:12;4.70;;;3.78;;
27618;SDS011;15039;50.830;4.730;2023-06-22T08:59:37;6.50;;;4.03;;
27618;SDS011;15039;50.830;4.730;2023-06-22T09:02:03;4.43;;;3.85;;
27618;SDS011;15039;50.830;4.730;2023-06-22T09:04:29;5.22;;;4.00;;
27618;SDS011;15039;50.830;4.730;2023-06-22T09:06:54;4.70;;;3.88;;
27618;SDS011;15039;50.830;4.730;2023-06-22T09:09:21;6.55;;;3.72;;
27618;SDS011;15039;50.830;4.730;2023-06-22T09:11:46;5.10;;;4.35;;
27618;SDS011;15039;50.830;4.730;2023-06-22T09:14:12;4.53;;;4.13;;
27618;SDS011;15039;50.830;4.730;2023-06-22T09:16:38;6.18;;;4.35;;
27618;SDS011;15039;50.830;4.730;2023-06-22T09:19:03;4.93;;;4.43;;
27618;SDS011;15039;50.830;4.730;2023-06-22T09:21:29;4.95;;;3.78;;
27618;SDS011;15039;50.830;4.730;2023-06-22T09:23:55;4.70;;;4.30;;
27618;SDS011;15039;50.830;4.730;2023-06-22T09:26:21;5.63;;;4.95;;
27618;SDS011;15039;50.830;4.730;2023-06-22T09:28:48;5.00;;;4.20;;
27618;SDS011;15039;50.830;4.730;2023-06-22T09:31:14;5.53;;;4.70;;
27618;SDS011;15039;50.830;4.730;2023-06-22T09:33:41;5.32;;;4.82;;
27618;SDS011;15039;50.830;4.730;2023-06-22T09:36:07;6.57;;;4.90;;
27618;SDS011;15039;50.830;4.730;2023-06-22T09:38:36;5.60;;;5.00;;
27618;SDS011;15039;50.830;4.730;2023-06-22T09:43:28;10.65;;;6.00;;
27618;SDS011;15039;50.830;4.730;2023-06-22T09:45:53;6.38;;;5.50;;
27618;SDS011;15039;50.830;4.730;2023-06-22T09:48:19;7.72;;;6.43;;
27618;SDS011;15039;50.830;4.730;2023-06-22T09:50:45;7.60;;;6.72;;
27618;SDS011;15039;50.830;4.730;2023-06-22T09:53:10;10.60;;;7.03;;
27618;SDS011;15039;50.830;4.730;2023-06-22T09:55:36;8.68;;;7.15;;
27618;SDS011;15039;50.830;4.730;2023-06-22T09:58:01;9.27;;;7.68;;
27618;SDS011;15039;50.830;4.730;2023-06-22T10:00:27;11.10;;;8.32;;
27618;SDS011;15039;50.830;4.730;2023-06-22T10:02:54;8.60;;;7.60;;
27618;SDS011;15039;50.830;4.730;2023-06-22T10:05:21;8.90;;;8.00;;
27618;SDS011;15039;50.830;4.730;2023-06-22T10:07:47;10.13;;;8.80;;
27618;SDS011;15039;50.830;4.730;2023-06-22T10:10:13;8.82;;;7.82;;
27618;SDS011;15039;50.830;4.730;2023-06-22T10:12:46;12.75;;;8.98;;
27618;SDS011;15039;50.830;4.730;2023-06-22T10:15:13;11.20;;;9.23;;
27618;SDS011;15039;50.830;4.730;2023-06-22T10:17:40;12.05;;;8.98;;
27618;SDS011;15039;50.830;4.730;2023-06-22T10:20:06;11.23;;;9.07;;
27618;SDS011;15039;50.830;4.730;2023-06-22T10:22:39;11.38;;;10.00;;
27618;SDS011;15039;50.830;4.730;2023-06-22T10:25:10;12.30;;;10.20;;
27618;SDS011;15039;50.830;4.730;2023-06-22T10:27:37;12.05;;;10.65;;
27618;SDS011;15039;50.830;4.730;2023-06-22T10:30:07;13.25;;;11.70;;
27618;SDS011;15039;50.830;4.730;2023-06-22T10:32:33;16.10;;;13.38;;
27618;SDS011;15039;50.830;4.730;2023-06-22T10:34:59;17.80;;;14.13;;
27618;SDS011;15039;50.830;4.730;2023-06-22T10:37:24;17.23;;;14.82;;
27618;SDS011;15039;50.830;4.730;2023-06-22T10:39:50;17.55;;;14.85;;
27618;SDS011;15039;50.830;4.730;2023-06-22T10:42:16;17.70;;;15.63;;
27618;SDS011;15039;50.830;4.730;2023-06-22T10:44:42;19.95;;;16.83;;
27618;SDS011;15039;50.830;4.730;2023-06-22T10:47:09;22.85;;;17.10;;
27618;SDS011;15039;50.830;4.730;2023-06-22T10:49:37;19.02;;;16.92;;
27618;SDS011;15039;50.830;4.730;2023-06-22T10:52:06;21.60;;;17.80;;
27618;SDS011;15039;50.830;4.730;2023-06-22T10:54:33;21.02;;;18.30;;
27618;SDS011;15039;50.830;4.730;2023-06-22T10:57:00;22.05;;;19.33;;
27618;SDS011;15039;50.830;4.730;2023-06-22T10:59:26;23.90;;;18.98;;
27618;SDS011;15039;50.830;4.730;2023-06-22T11:01:53;23.60;;;19.65;;
27618;SDS011;15039;50.830;4.730;2023-06-22T11:04:20;24.38;;;19.17;;
27618;SDS011;15039;50.830;4.730;2023-06-22T11:06:46;25.85;;;20.58;;
27618;SDS011;15039;50.830;4.730;2023-06-22T11:09:12;24.55;;;20.98;;
27618;SDS011;15039;50.830;4.730;2023-06-22T11:11:43;26.45;;;22.25;;
27618;SDS011;15039;50.830;4.730;2023-06-22T11:14:09;28.23;;;22.63;;
27618;SDS011;15039;50.830;4.730;2023-06-22T11:16:41;26.08;;;21.30;;
27618;SDS011;15039;50.830;4.730;2023-06-22T11:19:06;27.27;;;21.58;;
27618;SDS011;15039;50.830;4.730;2023-06-22T11:21:33;26.83;;;22.17;;
27618;SDS011;15039;50.830;4.730;2023-06-22T11:24:05;28.42;;;21.88;;
27618;SDS011;15039;50.830;4.730;2023-06-22T11:26:33;29.67;;;23.17;;
27618;SDS011;15039;50.830;4.730;2023-06-22T11:29:02;27.70;;;22.43;;
27618;SDS011;15039;50.830;4.730;2023-06-22T11:31:32;27.40;;;22.30;;
27618;SDS011;15039;50.830;4.730;2023-06-22T11:33:57;26.77;;;21.88;;
27618;SDS011;15039;50.830;4.730;2023-06-22T11:36:23;24.80;;;21.85;;
27618;SDS011;15039;50.830;4.730;2023-06-22T11:38:49;30.65;;;20.85;;
27618;SDS011;15039;50.830;4.730;2023-06-22T11:41:15;28.58;;;21.05;;
27618;SDS011;15039;50.830;4.730;2023-06-22T11:43:41;26.00;;;20.80;;
27618;SDS011;15039;50.830;4.730;2023-06-22T11:46:08;22.13;;;18.88;;
27618;SDS011;15039;50.830;4.730;2023-06-22T11:48:35;25.05;;;19.80;;
27618;SDS011;15039;50.830;4.730;2023-06-22T11:51:02;25.77;;;19.95;;
27618;SDS011;15039;50.830;4.730;2023-06-22T11:53:28;26.08;;;21.50;;
27618;SDS011;15039;50.830;4.730;2023-06-22T11:55:54;24.50;;;21.63;;
27618;SDS011;15039;50.830;4.730;2023-06-22T11:58:21;26.42;;;21.98;;
27618;SDS011;15039;50.830;4.730;2023-06-22T12:00:47;25.77;;;21.80;;
27618;SDS011;15039;50.830;4.730;2023-06-22T12:03:13;25.65;;;21.50;;
27618;SDS011;15039;50.830;4.730;2023-06-22T12:05:39;27.80;;;22.05;;
27618;SDS011;15039;50.830;4.730;2023-06-22T12:08:05;28.80;;;22.42;;
27618;SDS011;15039;50.830;4.730;2023-06-22T12:10:31;29.70;;;23.05;;
27618;SDS011;15039;50.830;4.730;2023-06-22T12:12:59;28.77;;;22.90;;
27618;SDS011;15039;50.830;4.730;2023-06-22T12:15:27;30.58;;;23.73;;
27618;SDS011;15039;50.830;4.730;2023-06-22T12:17:56;31.50;;;24.30;;
27618;SDS011;15039;50.830;4.730;2023-06-22T12:20:25;32.45;;;25.27;;
27618;SDS011;15039;50.830;4.730;2023-06-22T12:22:55;31.08;;;25.13;;
27618;SDS011;15039;50.830;4.730;2023-06-22T12:25:23;29.25;;;24.60;;
27618;SDS011;15039;50.830;4.730;2023-06-22T12:27:50;29.55;;;24.15;;
27618;SDS011;15039;50.830;4.730;2023-06-22T12:30:18;29.67;;;25.73;;
27618;SDS011;15039;50.830;4.730;2023-06-22T12:32:44;37.05;;;26.48;;
27618;SDS011;15039;50.830;4.730;2023-06-22T12:35:11;32.33;;;26.30;;
27618;SDS011;15039;50.830;4.730;2023-06-22T12:37:41;34.78;;;27.27;;
27618;SDS011;15039;50.830;4.730;2023-06-22T12:42:34;38.08;;;28.30;;
27618;SDS011;15039;50.830;4.730;2023-06-22T12:44:59;35.63;;;28.38;;
27618;SDS011;15039;50.830;4.730;2023-06-22T12:47:25;36.63;;;27.73;;
27618;SDS011;15039;50.830;4.730;2023-06-22T12:49:50;10.65;;;7.47;;
27618;SDS011;15039;50.830;4.730;2023-06-22T12:52:17;2.95;;;2.65;;
27618;SDS011;15039;50.830;4.730;2023-06-22T12:54:43;1.27;;;1.23;;
27618;SDS011;15039;50.830;4.730;2023-06-22T12:57:09;2.53;;;2.08;;
27618;SDS011;15039;50.830;4.730;2023-06-22T12:59:34;2.97;;;2.45;;
27618;SDS011;15039;50.830;4.730;2023-06-22T13:02:00;3.03;;;2.05;;
27618;SDS011;15039;50.830;4.730;2023-06-22T13:04:27;2.53;;;2.33;;
27618;SDS011;15039;50.830;4.730;2023-06-22T13:06:53;1.45;;;1.33;;
27618;SDS011;15039;50.830;4.730;2023-06-22T13:09:18;2.15;;;1.95;;
27618;SDS011;15039;50.830;4.730;2023-06-22T13:11:44;2.30;;;2.10;;
27618;SDS011;15039;50.830;4.730;2023-06-22T13:14:10;2.08;;;1.90;;
27618;SDS011;15039;50.830;4.730;2023-06-22T13:16:36;14.60;;;1.70;;
27618;SDS011;15039;50.830;4.730;2023-06-22T13:19:01;2.50;;;1.70;;
27618;SDS011;15039;50.830;4.730;2023-06-22T13:21:27;3.92;;;2.90;;
27618;SDS011;15039;50.830;4.730;2023-06-22T13:23:53;1.98;;;1.77;;
27618;SDS011;15039;50.830;4.730;2023-06-22T13:26:20;2.20;;;1.98;;
27618;SDS011;15039;50.830;4.730;2023-06-22T13:28:47;2.53;;;1.93;;
27618;SDS011;15039;50.830;4.730;2023-06-22T13:31:12;3.63;;;2.42;;
27618;SDS011;15039;50.830;4.730;2023-06-22T13:33:38;1.55;;;1.45;;
27618;SDS011;15039;50.830;4.730;2023-06-22T13:36:05;3.53;;;1.70;;
27618;SDS011;15039;50.830;4.730;2023-06-22T13:38:35;3.05;;;2.63;;
27618;SDS011;15039;50.830;4.730;2023-06-22T13:41:03;2.75;;;2.22;;
27618;SDS011;15039;50.830;4.730;2023-06-22T13:43:29;1.27;;;1.27;;
27618;SDS011;15039;50.830;4.730;2023-06-22T13:45:55;2.22;;;2.13;;
27618;SDS011;15039;50.830;4.730;2023-06-22T13:48:20;3.25;;;2.80;;
27618;SDS011;15039;50.830;4.730;2023-06-22T13:50:48;11.55;;;2.28;;
27618;SDS011;15039;50.830;4.730;2023-06-22T13:53:13;1.25;;;1.20;;
27618;SDS011;15039;50.830;4.730;2023-06-22T13:55:39;1.58;;;1.50;;
27618;SDS011;15039;50.830;4.730;2023-06-22T13:58:05;1.88;;;1.77;;
27618;SDS011;15039;50.830;4.730;2023-06-22T14:00:30;2.92;;;1.77;;
27618;SDS011;15039;50.830;4.730;2023-06-22T14:02:56;2.80;;;2.30;;
27618;SDS011;15039;50.830;4.730;2023-06-22T14:05:22;1.30;;;1.23;;
27618;SDS011;15039;50.830;4.730;2023-06-22T14:07:47;1.60;;;1.50;;
27618;SDS011;15039;50.830;4.730;2023-06-22T14:10:13;2.88;;;1.67;;
27618;SDS011;15039;50.830;4.730;2023-06-22T14:12:48;1.85;;;1.75;;
27618;SDS011;15039;50.830;4.730;2023-06-22T14:15:14;0.93;;;0.85;;
27618;SDS011;15039;50.830;4.730;2023-06-22T14:17:40;1.58;;;1.48;;
27618;SDS011;15039;50.830;4.730;2023-06-22T14:20:05;1.88;;;1.77;;
27618;SDS011;15039;50.830;4.730;2023-06-22T14:22:33;5.18;;;1.75;;
27618;SDS011;15039;50.830;4.730;2023-06-22T14:25:00;1.45;;;1.33;;
27618;SDS011;15039;50.830;4.730;2023-06-22T14:27:26;4.18;;;2.10;;
27618;SDS011;15039;50.830;4.730;2023-06-22T14:29:53;2.20;;;2.10;;
27618;SDS011;15039;50.830;4.730;2023-06-22T14:32:18;0.93;;;0.93;;
27618;SDS011;15039;50.830;4.730;2023-06-22T14:34:44;1.55;;;1.45;;
27618;SDS011;15039;50.830;4.730;2023-06-22T14:37:10;3.42;;;1.08;;
27618;SDS011;15039;50.830;4.730;2023-06-22T14:39:36;0.98;;;0.98;;
27618;SDS011;15039;50.830;4.730;2023-06-22T14:42:02;1.15;;;0.93;;
27618;SDS011;15039;50.830;4.730;2023-06-22T14:44:28;2.45;;;2.10;;
27618;SDS011;15039;50.830;4.730;2023-06-22T14:46:54;2.63;;;1.58;;
27618;SDS011;15039;50.830;4.730;2023-06-22T14:49:23;2.30;;;1.92;;
27618;SDS011;15039;50.830;4.730;2023-06-22T14:51:49;1.70;;;1.60;;
27618;SDS011;15039;50.830;4.730;2023-06-22T14:54:15;2.83;;;2.28;;
27618;SDS011;15039;50.830;4.730;2023-06-22T14:56:40;1.33;;;1.27;;
27618;SDS011;15039;50.830;4.730;2023-06-22T14:59:06;2.97;;;2.03;;